< < Back
Terminal Aerodrome Forecast


Current Version              Previous Versions:   1  2  3  4  5  6  7  8  9  

Terminal Aerodrome Forecast

052
FTUS42 KCAE 300538
TAFAGS
TAF
KAGS 300538Z 3006/3106 VRB03KT 2SM BR BKN008
      TEMPO 3006/3009 1/2SM FG BKN002
     FM301000 VRB03KT 2SM BR BKN012
     FM301500 05007KT P6SM BKN035
     FM310000 VRB03KT P6SM SCT200=

Latest METAR

403
SAUS70 KWBC 300700 RRD
MTRAGS
METAR KAGS 300653Z AUTO 00000KT 10SM SCT060 21/21 A3006 RMK AO2 SLP177
T02110206


USA.gov is the U.S. government's official web portal to all federal, state and local government web resources and services.